Time;durP1;ratioP1;P1;durP2;ratioP2;P2;SDS_P1;SDS_P2;PMS_P1;PMS_P2;Temp;Humidity;BMP_temperature;BMP_pressure;BME280_temperature;BME280_humidity;BME280_pressure;Samples;Min_cycle;Max_cycle;Signal;HPM_P1;HPM_P2
2023/04/09 00:02:09;;;;;;;49.70;27.88;;;;;;;9.97;89.15;102506.63;5308855;23;20036;-66
2023/04/09 00:04:35;;;;;;;50.67;28.38;;;;;;;9.99;88.68;102498.06;5104101;23;20156;-70
2023/04/09 00:07:00;;;;;;;46.92;27.17;;;;;;;9.98;88.29;102497.97;4985134;28;20081;-70
2023/04/09 00:09:25;;;;;;;52.85;28.98;;;;;;;9.97;88.90;102494.50;4986418;28;20241;-70
2023/04/09 00:11:51;;;;;;;49.47;28.35;;;;;;;9.97;89.15;102491.91;5169770;23;20083;-70
2023/04/09 00:14:16;;;;;;;46.78;27.42;;;;;;;9.98;89.09;102490.16;5183323;23;20047;-66
2023/04/09 00:16:41;;;;;;;48.88;27.20;;;;;;;9.98;89.13;102492.78;4984901;28;20045;-66
2023/04/09 00:19:06;;;;;;;48.85;27.83;;;;;;;9.97;89.31;102496.22;5141035;23;20050;-70
2023/04/09 00:21:32;;;;;;;46.05;26.73;;;;;;;9.96;89.15;102494.41;4985357;28;20040;-70
2023/04/09 00:23:57;;;;;;;47.70;26.75;;;;;;;9.96;88.88;102489.22;5150251;23;20080;-70
2023/04/09 00:26:22;;;;;;;46.25;28.00;;;;;;;9.97;89.06;102489.28;5160648;23;20049;-70
2023/04/09 00:31:22;;;;;;;48.85;27.75;;;;;;;9.96;89.45;102490.09;5301691;23;20062;-70
2023/04/09 00:36:21;;;;;;;46.75;26.05;;;;;;;9.94;89.60;102480.44;5317015;23;20037;-66
2023/04/09 00:41:21;;;;;;;44.75;25.70;;;;;;;9.90;89.86;102484.56;5179807;23;20054;-70
2023/04/09 00:43:47;;;;;;;45.95;26.35;;;;;;;9.90;89.87;102480.25;5113927;23;20053;-70
2023/04/09 00:46:12;;;;;;;45.40;24.02;;;;;;;9.88;89.70;102481.88;5393003;23;20108;-70
2023/04/09 00:48:38;;;;;;;42.25;24.40;;;;;;;9.86;89.59;102482.63;5200678;23;20054;-70
2023/04/09 00:51:03;;;;;;;43.85;24.60;;;;;;;9.86;89.71;102486.13;4990361;28;20061;-70
2023/04/09 00:53:29;;;;;;;39.97;23.70;;;;;;;9.84;89.69;102479.06;5144081;23;20057;-70
2023/04/09 00:55:55;;;;;;;42.15;24.50;;;;;;;9.82;90.00;102481.56;5381549;23;20125;-70
2023/04/09 00:58:21;;;;;;;38.90;23.23;;;;;;;9.82;90.08;102481.56;5208410;23;20139;-70
2023/04/09 01:00:46;;;;;;;39.17;22.83;;;;;;;9.83;90.19;102477.25;4998642;28;20513;-70
2023/04/09 01:03:12;;;;;;;41.40;23.50;;;;;;;9.82;90.53;102480.66;5163883;23;20031;-69
2023/04/09 01:10:33;;;;;;;40.83;23.08;;;;;;;9.72;90.52;102474.09;5358579;23;20105;-70
2023/04/09 01:15:47;;;;;;;40.28;22.90;;;;;;;9.69;90.13;102463.50;5277828;23;20046;-70
2023/04/09 01:18:29;;;;;;;39.33;23.27;;;;;;;9.68;90.36;102466.94;5398864;23;20058;-70
2023/04/09 01:28:56;;;;;;;39.88;23.50;;;;;;;9.68;90.78;102461.72;5177751;23;20080;-70
2023/04/09 01:31:28;;;;;;;39.97;23.27;;;;;;;9.65;91.46;102461.56;5161536;23;20054;-66
2023/04/09 01:36:26;;;;;;;41.90;24.02;;;;;;;9.60;91.50;102463.00;5180712;23;20058;-70
2023/04/09 01:38:52;;;;;;;43.78;24.70;;;;;;;9.57;90.94;102459.44;5317573;23;20073;-66
2023/04/09 01:41:20;;;;;;;44.30;24.80;;;;;;;9.54;91.67;102463.56;5330452;23;20976;-66
2023/04/09 01:44:09;;;;;;;45.63;25.55;;;;;;;9.50;91.68;102454.72;5059956;23;20038;-96
2023/04/09 01:46:47;;;;;;;45.05;25.35;;;;;;;9.48;91.73;102458.94;4993303;28;20126;-96
2023/04/09 01:49:19;;;;;;;45.45;25.48;;;;;;;9.51;92.03;102453.00;5010337;28;20093;-96
2023/04/09 01:52:13;;;;;;;45.47;24.40;;;;;;;9.52;91.87;102454.81;5007353;28;20049;-96
2023/04/09 01:54:51;;;;;;;43.78;25.73;;;;;;;9.51;91.88;102459.09;5011673;28;20046;-96
2023/04/09 01:57:42;;;;;;;46.92;25.85;;;;;;;9.51;92.03;102448.69;5024426;28;20085;-96
2023/04/09 02:03:45;;;;;;;46.97;25.38;;;;;;;9.40;92.17;102449.84;5022026;28;20057;-96
2023/04/09 02:07:00;;;;;;;46.25;25.38;;;;;;;9.42;92.12;102447.31;5002302;28;20018;-96
2023/04/09 02:09:38;;;;;;;48.88;27.83;;;;;;;9.39;92.73;102455.84;4965049;28;20117;-96
2023/04/09 02:12:06;;;;;;;51.08;27.42;;;;;;;9.39;92.38;102453.25;5223979;23;20057;-70
2023/04/09 02:14:32;;;;;;;50.40;26.67;;;;;;;9.38;92.79;102457.56;5288371;23;20685;-66
2023/04/09 02:16:58;;;;;;;47.63;26.63;;;;;;;9.42;93.41;102455.13;5178565;23;20077;-65
2023/04/09 02:19:24;;;;;;;48.10;26.10;;;;;;;9.44;92.86;102449.16;4996327;28;20095;-65
2023/04/09 02:21:49;;;;;;;48.30;27.05;;;;;;;9.43;93.04;102447.41;5233318;23;20817;-70
2023/04/09 02:24:14;;;;;;;48.60;26.60;;;;;;;9.42;92.79;102443.00;5267872;23;20078;-69
2023/04/09 02:26:40;;;;;;;47.35;27.20;;;;;;;9.40;93.01;102445.50;5172604;23;20054;-66
2023/04/09 02:29:05;;;;;;;47.20;26.20;;;;;;;9.39;92.97;102448.03;5196688;23;20065;-70
2023/04/09 02:31:30;;;;;;;48.08;27.25;;;;;;;9.38;92.78;102441.94;5069343;23;20082;-70
2023/04/09 02:33:55;;;;;;;50.40;27.15;;;;;;;9.37;93.01;102440.16;5488549;23;20029;-69
2023/04/09 02:38:50;;;;;;;50.10;27.88;;;;;;;9.36;92.93;102446.16;5304740;23;20030;-69
2023/04/09 02:41:15;;;;;;;50.95;27.17;;;;;;;9.34;93.18;102440.00;5095606;23;20112;-70
2023/04/09 02:46:18;;;;;;;52.83;29.00;;;;;;;9.36;93.55;102443.56;5092034;23;20054;-70
2023/04/09 02:51:19;;;;;;;55.00;28.67;;;;;;;9.37;93.45;102439.22;5072565;23;20054;-65
2023/04/09 02:53:44;;;;;;;51.83;28.45;;;;;;;9.37;93.55;102432.34;4959790;28;20031;-65
2023/04/09 02:56:10;;;;;;;52.15;27.90;;;;;;;9.35;93.18;102431.34;4959901;28;20109;-66
2023/04/09 02:58:35;;;;;;;54.08;28.05;;;;;;;9.32;93.27;102433.78;5238533;23;20037;-69
2023/04/09 03:01:00;;;;;;;55.38;27.33;;;;;;;9.29;93.58;102433.63;5171916;23;20046;-70
2023/04/09 03:05:55;;;;;;;56.30;28.90;;;;;;;9.29;94.08;102430.16;5235070;23;20066;-65
2023/04/09 03:08:21;;;;;;;52.72;28.48;;;;;;;9.27;93.98;102430.06;4976207;28;20429;-65
2023/04/09 03:10:46;;;;;;;54.67;28.25;;;;;;;9.28;94.05;102426.63;5094196;23;20098;-69
2023/04/09 03:13:11;;;;;;;55.80;29.33;;;;;;;9.29;94.24;102419.75;5003938;23;20057;-65
2023/04/09 03:15:37;;;;;;;55.10;28.63;;;;;;;9.29;94.22;102423.22;5452849;23;20025;-66
2023/04/09 03:18:02;;;;;;;52.47;28.30;;;;;;;9.31;94.42;102428.50;5395982;23;20144;-65
2023/04/09 03:20:27;;;;;;;54.97;28.23;;;;;;;9.34;94.17;102416.56;5192041;23;20074;-65
2023/04/09 03:23:02;;;;;;;58.45;29.65;;;;;;;9.34;94.11;102424.38;5330167;23;1120556;31
2023/04/09 03:25:28;;;;;;;57.17;29.98;;;;;;;9.31;94.01;102416.41;5157595;23;20054;-70
2023/04/09 03:27:53;;;;;;;56.92;28.92;;;;;;;9.28;93.57;102412.72;5351658;23;20058;-66
2023/04/09 03:35:27;;;;;;;59.42;31.58;;;;;;;9.23;94.00;102402.09;5095490;23;20061;-70
2023/04/09 03:37:52;;;;;;;59.00;30.75;;;;;;;9.24;93.92;102406.50;4985995;28;20022;-66
2023/04/09 03:40:18;;;;;;;59.70;30.92;;;;;;;9.22;94.05;102405.50;5373389;23;20021;-69
2023/04/09 03:42:43;;;;;;;63.88;31.58;;;;;;;9.17;93.85;102401.75;5232519;23;20029;-70
2023/04/09 03:45:08;;;;;;;64.95;31.67;;;;;;;9.17;94.21;102404.38;5019019;23;20050;-69
2023/04/09 03:50:05;;;;;;;63.60;30.92;;;;;;;9.13;94.40;102403.28;5183802;23;20513;-69
2023/04/09 03:52:31;;;;;;;65.05;31.70;;;;;;;9.10;94.35;102403.13;5153816;23;20058;-69
2023/04/09 03:54:56;;;;;;;61.95;30.98;;;;;;;9.08;94.67;102409.03;5195065;23;20062;-69
2023/04/09 03:59:47;;;;;;;64.32;31.27;;;;;;;9.08;94.39;102399.56;5404617;23;20100;-69
2023/04/09 04:02:12;;;;;;;67.43;33.50;;;;;;;9.03;94.30;102399.28;5188223;23;20045;-70
2023/04/09 04:07:07;;;;;;;63.55;31.63;;;;;;;8.96;94.10;102404.06;5049298;23;20049;-69
2023/04/09 04:09:32;;;;;;;62.25;30.70;;;;;;;8.91;94.43;102405.50;5152841;23;20088;-70
2023/04/09 04:12:01;;;;;;;59.90;29.00;;;;;;;8.85;93.47;102411.28;4967395;28;20031;-70
2023/04/09 04:14:26;;;;;;;56.45;27.42;;;;;;;8.80;92.23;102399.72;5247722;23;20058;-69
2023/04/09 04:16:55;;;;;;;54.83;27.80;;;;;;;8.77;91.84;102402.16;5307891;23;20922;-69
2023/04/09 04:21:50;;;;;;;56.70;28.58;;;;;;;8.65;91.54;102411.03;5125605;23;20051;-66
2023/04/09 04:24:15;;;;;;;56.03;26.73;;;;;;;8.59;92.15;102412.38;5213022;23;20733;-69
2023/04/09 04:26:41;;;;;;;54.28;27.35;;;;;;;8.55;91.85;102410.44;5080629;23;20021;-65
2023/04/09 04:29:06;;;;;;;50.35;25.45;;;;;;;8.50;92.30;102408.47;5159130;23;20049;-70
2023/04/09 04:31:31;;;;;;;54.60;26.30;;;;;;;8.46;92.24;102403.91;5176656;23;20398;-66
2023/04/09 04:33:57;;;;;;;58.10;27.05;;;;;;;8.40;92.15;102403.53;5191507;23;20062;-65
2023/04/09 04:36:22;;;;;;;57.53;26.35;;;;;;;8.39;92.55;102398.25;5168132;23;20144;-66
2023/04/09 04:38:50;;;;;;;53.58;26.40;;;;;;;8.37;92.65;102411.13;5070135;23;20102;-96
2023/04/09 04:41:28;;;;;;;58.80;27.15;;;;;;;8.32;92.67;102403.06;5009771;28;20054;-96
2023/04/09 04:44:15;;;;;;;58.83;27.42;;;;;;;8.33;92.99;102404.88;5007469;28;20041;-96
2023/04/09 04:47:46;;;;;;;51.28;26.00;;;;;;;8.33;92.90;102401.38;4997212;28;20031;-96
2023/04/09 04:50:15;;;;;;;53.97;26.45;;;;;;;8.28;92.31;102410.59;4991101;28;20027;-96
2023/04/09 04:53:18;;;;;;;54.70;27.15;;;;;;;8.24;91.96;102412.13;4959132;28;20018;-96
2023/04/09 04:56:15;;;;;;;53.55;25.80;;;;;;;8.13;91.77;102406.28;4986735;28;20039;-96
2023/04/09 04:59:03;;;;;;;;;;;;;;;;;;;;;
2023/04/09 05:01:28;;;;;;;52.40;25.77;;;;;;;7.90;91.98;102411.84;5170679;23;20057;-66
2023/04/09 05:03:53;;;;;;;53.30;26.13;;;;;;;7.80;92.18;102408.66;5133014;23;20064;-66
2023/04/09 05:06:19;;;;;;;50.38;26.08;;;;;;;7.75;92.11;102409.19;5349512;23;20073;-66
2023/04/09 05:08:44;;;;;;;54.20;25.88;;;;;;;7.68;92.64;102405.34;5221359;23;20056;-66
2023/04/09 05:11:13;;;;;;;54.00;26.23;;;;;;;7.66;92.74;102407.84;5423623;23;20056;-70
2023/04/09 05:16:18;;;;;;;53.65;24.15;;;;;;;7.68;92.61;102405.34;4997413;28;19932;-70
2023/04/09 05:18:43;;;;;;;56.90;27.52;;;;;;;7.66;92.31;102400.06;5000442;28;20069;-70
2023/04/09 05:21:11;;;;;;;53.90;25.60;;;;;;;7.63;92.22;102401.56;5078241;23;20045;-96
2023/04/09 05:23:37;;;;;;;54.13;27.00;;;;;;;7.59;92.25;102404.78;4997825;28;20041;-96
2023/04/09 05:26:03;;;;;;;58.42;26.25;;;;;;;7.61;92.72;102405.78;5186258;23;20053;-66
2023/04/09 05:31:14;;;;;;;52.30;26.27;;;;;;;7.57;92.58;102406.38;5017839;23;20050;-95
2023/04/09 05:33:50;;;;;;;53.13;25.40;;;;;;;7.60;92.42;102419.53;5009291;28;20034;-96
2023/04/09 05:36:31;;;;;;;50.35;25.17;;;;;;;7.58;92.47;102406.47;4993306;28;20037;-96
2023/04/09 05:39:05;;;;;;;50.63;25.83;;;;;;;7.58;92.47;102409.06;5011061;28;20023;-96
2023/04/09 05:41:36;;;;;;;55.10;27.92;;;;;;;7.62;92.16;102415.38;4993510;28;20113;-96
2023/04/09 05:44:08;;;;;;;52.83;25.88;;;;;;;7.56;92.41;102412.38;4982684;28;20034;-96
2023/04/09 05:46:55;;;;;;;50.60;25.23;;;;;;;7.54;92.24;102401.03;4993642;28;20035;-96
2023/04/09 05:49:38;;;;;;;;;;;;;;;;;;;;;
2023/04/09 05:52:20;;;;;;;52.97;24.92;;;;;;;7.47;93.08;102407.50;5000693;28;20041;-96
2023/04/09 05:55:33;;;;;;;55.38;27.60;;;;;;;7.43;93.33;102416.81;5000280;28;20010;-96
2023/04/09 05:58:13;;;;;;;55.88;26.17;;;;;;;7.38;93.89;102419.94;4998671;28;20034;-96
2023/04/09 06:00:53;;;;;;;52.97;26.08;;;;;;;7.39;94.03;102416.53;4996380;28;20018;-96
2023/04/09 06:03:29;;;;;;;58.05;26.85;;;;;;;7.39;94.41;102419.13;5015113;28;20045;-97
2023/04/09 06:05:59;;;;;;;52.15;25.90;;;;;;;7.39;94.27;102425.22;4994731;28;20142;-96
2023/04/09 06:08:44;;;;;;;;;;;;;;;;;;;;;
2023/04/09 06:11:21;;;;;;;52.85;26.55;;;;;;;7.37;94.03;102426.81;5013306;28;20042;-96
2023/04/09 06:13:50;;;;;;;53.83;27.73;;;;;;;7.36;93.97;102425.03;4996743;28;20030;-96
2023/04/09 06:16:23;;;;;;;55.17;27.55;;;;;;;7.37;94.28;102420.72;4993488;28;20045;-96
2023/04/09 06:19:15;;;;;;;59.33;27.88;;;;;;;7.37;94.46;102426.81;4992757;28;20026;-96
2023/04/09 06:21:51;;;;;;;56.45;26.38;;;;;;;7.43;94.68;102419.41;4993691;28;20093;-96
2023/04/09 06:24:22;;;;;;;54.22;27.30;;;;;;;7.47;94.23;102429.19;4991423;28;20038;-96
2023/04/09 06:26:51;;;;;;;56.60;28.55;;;;;;;7.47;94.00;102430.84;4990961;28;20035;-96
2023/04/09 06:29:30;;;;;;;57.43;27.27;;;;;;;7.51;94.89;102429.38;5003247;28;20053;-96
2023/04/09 06:32:02;;;;;;;55.33;27.23;;;;;;;7.54;93.61;102437.34;4989269;28;20302;-96
2023/04/09 06:34:33;;;;;;;57.08;27.48;;;;;;;7.55;94.15;102434.84;4976367;28;20026;-96
2023/04/09 06:37:03;;;;;;;55.95;27.30;;;;;;;7.56;94.09;102425.34;4968800;28;20023;-96
2023/04/09 06:39:35;;;;;;;58.28;27.58;;;;;;;7.55;93.91;102424.47;4990603;28;20531;-96
2023/04/09 06:42:23;;;;;;;59.65;28.67;;;;;;;7.63;94.35;102432.69;4979120;28;20018;-96
2023/04/09 06:44:54;;;;;;;55.13;28.80;;;;;;;7.73;94.13;102437.63;4983550;28;20010;-96
2023/04/09 06:47:56;;;;;;;;;;;;;;;;;;;;;
2023/04/09 06:50:32;;;;;;;55.75;28.52;;;;;;;7.89;93.55;102438.59;4983142;28;20053;-96
2023/04/09 06:53:01;;;;;;;56.03;28.70;;;;;;;7.98;93.41;102441.72;4968186;28;20034;-96
2023/04/09 06:55:35;;;;;;;57.70;29.47;;;;;;;8.00;92.92;102450.50;4963172;28;20278;-96
2023/04/09 06:58:01;;;;;;;57.00;29.02;;;;;;;8.05;93.11;102445.59;4996671;23;20368;-66
2023/04/09 07:00:27;;;;;;;59.17;29.48;;;;;;;8.09;92.64;102438.06;5233859;23;20081;-65
2023/04/09 07:03:26;;;;;;;60.20;29.85;;;;;;;8.18;92.86;102442.91;5512333;23;20036;31
2023/04/09 07:05:52;;;;;;;58.20;29.25;;;;;;;8.19;92.62;102437.81;4901647;29;20127;-69
2023/04/09 07:08:17;;;;;;;57.30;30.30;;;;;;;8.24;92.09;102442.38;4906387;29;20094;-65
2023/04/09 07:15:47;;;;;;;60.33;31.20;;;;;;;8.43;91.30;102441.75;5037793;23;20074;-69
2023/04/09 07:18:12;;;;;;;58.13;31.20;;;;;;;8.46;91.09;102445.47;5488620;23;21100;-65
2023/04/09 07:20:37;;;;;;;63.58;31.45;;;;;;;8.55;91.58;102447.69;5088970;23;20058;-65
2023/04/09 07:23:02;;;;;;;58.55;31.88;;;;;;;8.63;91.11;102445.53;5173650;23;20128;-65
2023/04/09 07:25:28;;;;;;;59.42;32.80;;;;;;;8.65;90.20;102441.34;5194481;23;20050;-70
2023/04/09 07:30:28;;;;;;;63.13;31.23;;;;;;;8.77;90.67;102448.94;5106216;23;20493;-65
2023/04/09 07:32:54;;;;;;;58.13;32.33;;;;;;;8.84;90.02;102446.75;5080570;23;20064;-65
2023/04/09 07:35:19;;;;;;;62.17;33.30;;;;;;;8.93;90.31;102450.69;5043708;23;20417;-65
2023/04/09 07:40:10;;;;;;;61.20;32.70;;;;;;;9.17;89.24;102449.47;5369039;23;20042;-65
2023/04/09 07:42:39;;;;;;;63.22;34.10;;;;;;;9.27;88.61;102449.94;4982106;28;20061;-66
2023/04/09 07:45:10;;;;;;;62.95;34.17;;;;;;;9.40;88.87;102452.44;5014182;23;20051;-96
2023/04/09 07:47:42;;;;;;;59.90;33.65;;;;;;;9.50;87.54;102452.13;4973928;28;20022;-96
2023/04/09 07:50:10;;;;;;;64.43;35.60;;;;;;;9.48;87.27;102451.13;4977520;28;20034;-96
2023/04/09 07:52:48;;;;;;;63.92;34.90;;;;;;;9.53;88.12;102448.75;4978311;28;20113;-94
2023/04/09 07:55:14;;;;;;;62.83;35.55;;;;;;;9.63;86.82;102439.75;4975693;28;20042;-96
2023/04/09 07:57:44;;;;;;;61.67;33.97;;;;;;;9.71;87.56;102441.94;4984667;28;20404;-96
2023/04/09 08:00:12;;;;;;;66.45;35.70;;;;;;;9.84;86.69;102440.88;4993224;28;20383;-95
2023/04/09 08:02:40;;;;;;;65.68;36.00;;;;;;;9.96;86.28;102447.53;4990420;28;20017;-96
2023/04/09 08:05:06;;;;;;;60.65;34.72;;;;;;;10.03;85.14;102449.66;4983233;23;20059;-71
2023/04/09 08:10:05;;;;;;;60.47;34.60;;;;;;;10.24;85.68;102439.47;4996640;23;19925;-71
2023/04/09 08:15:02;;;;;;;62.83;35.35;;;;;;;10.27;84.27;102443.09;5024357;23;20055;-95
2023/04/09 08:17:37;;;;;;;61.65;35.22;;;;;;;10.27;85.20;102444.81;4978430;28;20030;-96
2023/04/09 08:20:03;;;;;;;65.50;35.60;;;;;;;10.22;83.72;102441.94;4984910;28;20018;-96
2023/04/09 08:22:29;;;;;;;62.75;35.67;;;;;;;10.15;84.44;102439.84;5140427;23;20789;-70
2023/04/09 08:24:56;;;;;;;64.82;35.63;;;;;;;10.07;85.71;102441.19;5256276;23;21211;-71
2023/04/09 08:27:53;;;;;;;66.13;36.30;;;;;;;10.09;87.43;102453.47;5230632;23;20029;-96
2023/04/09 08:30:18;;;;;;;64.05;34.88;;;;;;;10.27;85.52;102450.91;4977697;28;20038;-95
2023/04/09 08:32:47;;;;;;;65.88;35.22;;;;;;;10.56;88.07;102448.91;4978673;28;20037;-96
2023/04/09 08:35:15;;;;;;;65.70;36.23;;;;;;;10.82;85.41;102451.91;5005300;28;20030;-96
2023/04/09 08:37:40;;;;;;;68.38;37.47;;;;;;;10.83;82.60;102444.97;5004556;28;20085;-96
2023/04/09 08:40:07;;;;;;;65.05;36.70;;;;;;;10.88;84.77;102441.75;5018184;28;20030;-96
2023/04/09 08:42:48;;;;;;;62.30;36.45;;;;;;;11.09;83.97;102438.38;5002700;28;20014;-96
2023/04/09 08:45:22;;;;;;;65.57;37.13;;;;;;;11.24;85.49;102439.09;4999712;28;20057;-96
2023/04/09 08:47:58;;;;;;;67.13;37.28;;;;;;;11.33;82.21;102440.38;5003359;28;20044;-96
2023/04/09 08:50:24;;;;;;;68.20;37.83;;;;;;;11.26;81.66;102437.44;5000858;28;20044;-96
2023/04/09 08:52:50;;;;;;;65.00;38.42;;;;;;;11.15;81.84;102436.06;5003244;28;20030;-96
2023/04/09 08:55:16;;;;;;;68.03;37.83;;;;;;;11.07;83.18;102434.81;5024052;28;20081;-96
2023/04/09 08:57:47;;;;;;;63.63;37.95;;;;;;;11.06;84.23;102433.91;4990655;28;20046;-96
2023/04/09 09:00:17;;;;;;;68.20;38.78;;;;;;;11.05;82.95;102431.22;5009451;28;20038;-96
2023/04/09 09:03:08;;;;;;;61.47;37.30;;;;;;;11.16;84.48;102435.25;4996489;28;20767;-96
2023/04/09 09:05:42;;;;;;;68.70;38.97;;;;;;;11.27;85.60;102436.63;5000891;28;20054;-96
2023/04/09 09:08:23;;;;;;;70.25;40.80;;;;;;;11.34;83.87;102436.91;4999019;28;20026;-96
2023/04/09 09:10:51;;;;;;;65.53;39.65;;;;;;;11.31;82.18;102437.66;5002680;28;20017;-96
2023/04/09 09:13:27;;;;;;;71.15;39.72;;;;;;;11.25;82.82;102440.91;4998707;28;20579;-96
2023/04/09 09:15:55;;;;;;;68.75;39.22;;;;;;;11.23;81.63;102434.69;5023278;28;20099;-96
2023/04/09 09:18:44;;;;;;;67.03;38.97;;;;;;;11.24;82.94;102430.38;4997195;28;20030;-96
2023/04/09 09:21:14;;;;;;;68.40;39.35;;;;;;;11.25;81.75;102438.28;5002215;28;20030;-96
2023/04/09 09:23:41;;;;;;;66.82;39.55;;;;;;;11.33;82.24;102429.94;5008717;28;20054;-96
2023/04/09 09:26:37;;;;;;;68.22;38.78;;;;;;;11.35;80.62;102430.88;4993711;28;20026;-96
2023/04/09 09:29:04;;;;;;;66.30;38.05;;;;;;;11.49;81.15;102425.47;4963283;28;20137;-96
2023/04/09 09:31:48;;;;;;;63.70;37.63;;;;;;;11.78;82.16;102414.53;4972538;28;20023;-96
2023/04/09 09:34:21;;;;;;;66.82;37.20;;;;;;;12.02;78.33;102419.06;4973392;28;20098;-96
2023/04/09 09:36:48;;;;;;;63.65;37.83;;;;;;;12.21;80.49;102412.91;4971486;28;20035;-96
2023/04/09 09:39:18;;;;;;;68.82;39.25;;;;;;;12.45;78.74;102420.88;4971044;28;20065;-96
2023/04/09 09:41:45;;;;;;;63.92;37.83;;;;;;;12.56;77.93;102417.00;4994413;28;20042;-96
2023/04/09 09:44:29;;;;;;;59.55;37.33;;;;;;;12.62;77.15;102411.13;4976556;28;20023;-96
2023/04/09 09:47:02;;;;;;;65.85;39.15;;;;;;;12.58;75.80;102417.94;4972321;28;20038;-96
2023/04/09 09:49:27;;;;;;;57.25;33.25;;;;;;;12.48;75.15;102406.22;4975976;28;20034;-96
2023/04/09 09:51:56;;;;;;;55.70;34.28;;;;;;;12.40;76.94;102407.63;4972772;28;20062;-96
2023/04/09 09:54:24;;;;;;;63.08;37.13;;;;;;;12.48;78.58;102401.00;4994823;28;20019;-96
2023/04/09 09:56:54;;;;;;;59.25;36.50;;;;;;;12.71;80.28;102398.41;4983229;28;20033;-96
2023/04/09 09:59:22;;;;;;;58.05;35.20;;;;;;;12.85;73.33;102396.34;4979378;28;20026;-96
2023/04/09 10:01:55;;;;;;;53.25;32.88;;;;;;;12.73;75.16;102391.53;4975991;28;20030;-96
2023/04/09 10:04:30;;;;;;;51.90;32.50;;;;;;;12.60;74.31;102395.38;4996591;28;20049;-96
2023/04/09 10:07:02;;;;;;;55.15;33.22;;;;;;;12.47;73.19;102387.84;4974846;28;20022;-96
2023/04/09 10:09:31;;;;;;;54.90;33.70;;;;;;;12.42;73.51;102392.00;4971027;28;20030;-96
2023/04/09 10:12:01;;;;;;;54.78;34.15;;;;;;;12.60;75.75;102387.53;4967227;28;20046;-96
2023/04/09 10:14:30;;;;;;;57.10;35.95;;;;;;;12.87;75.14;102379.88;4991133;28;20094;-96
2023/04/09 10:16:56;;;;;;;58.95;36.03;;;;;;;13.01;74.92;102380.38;4996573;28;20031;-96
2023/04/09 10:19:27;;;;;;;40.60;25.23;;;;;;;13.30;73.23;102383.22;4977826;28;20082;-96
2023/04/09 10:22:01;;;;;;;46.88;29.42;;;;;;;13.56;70.67;102368.50;4973119;28;20030;-96
2023/04/09 10:24:29;;;;;;;45.90;28.95;;;;;;;13.77;69.94;102366.56;4992455;28;20061;-96
2023/04/09 10:27:07;;;;;;;43.88;28.08;;;;;;;14.02;70.11;102366.59;4974015;28;20034;-96
2023/04/09 10:29:50;;;;;;;28.63;18.45;;;;;;;14.15;67.29;102367.00;5011574;28;20049;-96
2023/04/09 10:32:22;;;;;;;31.88;19.60;;;;;;;14.31;65.24;102365.75;4990021;28;20030;-96
2023/04/09 10:34:53;;;;;;;26.92;17.52;;;;;;;14.35;63.99;102365.03;5012334;28;20037;-96
2023/04/09 10:37:27;;;;;;;25.25;16.13;;;;;;;14.24;63.66;102362.06;5013787;28;20060;-96
2023/04/09 10:39:53;;;;;;;32.13;21.95;;;;;;;14.21;64.97;102356.72;5011732;28;20022;-96
2023/04/09 10:42:28;;;;;;;34.50;22.45;;;;;;;14.30;65.83;102349.16;4994921;28;20081;-96
2023/04/09 10:45:19;;;;;;;32.67;21.90;;;;;;;14.42;66.78;102348.66;4996826;28;20042;-96
2023/04/09 10:47:52;;;;;;;40.78;26.15;;;;;;;14.50;66.58;102348.91;4992378;28;20034;-96
2023/04/09 10:50:25;;;;;;;38.00;24.42;;;;;;;14.64;63.34;102345.00;4990945;28;20064;-96
2023/04/09 10:52:57;;;;;;;34.63;23.73;;;;;;;14.75;64.51;102346.22;4990207;28;20073;-96
2023/04/09 10:55:37;;;;;;;27.40;19.13;;;;;;;14.58;62.57;102342.16;4993956;28;20061;-96
2023/04/09 10:58:12;;;;;;;28.90;20.05;;;;;;;14.55;63.45;102336.81;5014975;28;20058;-96
2023/04/09 11:00:53;;;;;;;31.85;21.35;;;;;;;14.45;61.24;102333.00;4997974;28;20029;-96
2023/04/09 11:03:21;;;;;;;33.15;22.30;;;;;;;14.34;64.34;102334.38;4997980;28;20038;-96
2023/04/09 11:05:56;;;;;;;36.10;23.40;;;;;;;14.14;66.30;102331.16;4994763;28;20166;-96
2023/04/09 11:08:22;;;;;;;37.65;24.67;;;;;;;14.05;65.25;102335.25;5013322;28;20041;-96
2023/04/09 11:10:57;;;;;;;34.75;23.75;;;;;;;14.09;65.57;102337.13;4993084;28;20033;-96
2023/04/09 11:13:23;;;;;;;32.45;22.52;;;;;;;14.15;61.73;102327.66;5008903;28;20031;-96
2023/04/09 11:15:49;;;;;;;33.80;22.85;;;;;;;14.22;62.66;102324.41;5008553;28;20037;-96
2023/04/09 11:18:23;;;;;;;32.40;22.02;;;;;;;14.30;63.47;102322.06;5007866;28;20061;-96
2023/04/09 11:20:49;;;;;;;33.25;22.63;;;;;;;14.45;62.60;102319.91;5008754;28;20034;-96
2023/04/09 11:23:16;;;;;;;31.15;20.70;;;;;;;14.49;59.77;102324.41;4996559;28;20034;-96
2023/04/09 11:25:46;;;;;;;32.78;21.50;;;;;;;14.55;63.01;102328.94;5009630;28;20194;-96
2023/04/09 11:28:13;;;;;;;30.02;20.48;;;;;;;14.72;61.59;102325.13;4984506;28;20052;-96
2023/04/09 11:30:42;;;;;;;30.13;20.67;;;;;;;14.82;58.62;102317.56;4985797;28;20035;-96
2023/04/09 11:33:10;;;;;;;31.80;21.48;;;;;;;14.69;57.73;102322.44;5006218;28;20113;-96
2023/04/09 11:35:39;;;;;;;30.83;20.88;;;;;;;14.63;60.06;102316.09;4989025;28;20026;-96
2023/04/09 11:38:13;;;;;;;31.47;21.47;;;;;;;14.83;64.10;102319.31;4991889;28;20029;-96
2023/04/09 11:40:48;;;;;;;31.00;21.25;;;;;;;14.91;61.21;102313.44;4991862;28;20117;-96
2023/04/09 11:43:16;;;;;;;31.95;22.17;;;;;;;15.16;60.53;102306.28;4994409;28;20100;-96
2023/04/09 11:45:43;;;;;;;31.83;21.13;;;;;;;15.16;58.39;102300.16;4998080;28;20018;-96
2023/04/09 11:48:11;;;;;;;33.58;22.17;;;;;;;15.06;59.47;102302.53;4993967;28;20026;-96
2023/04/09 11:50:37;;;;;;;31.70;20.70;;;;;;;15.21;61.93;102299.44;4998713;28;20017;-96
2023/04/09 11:53:20;;;;;;;30.48;20.48;;;;;;;15.39;60.60;102295.53;5015384;28;20029;-96
2023/04/09 11:55:52;;;;;;;27.05;19.23;;;;;;;15.48;58.65;102299.31;4995541;28;20026;-96
2023/04/09 11:58:25;;;;;;;26.95;19.55;;;;;;;15.40;57.87;102297.31;5008507;28;20026;-96
2023/04/09 12:01:00;;;;;;;27.23;18.92;;;;;;;15.39;58.10;102309.53;4996638;28;20056;-96
2023/04/09 12:03:31;;;;;;;27.73;19.45;;;;;;;15.27;58.54;102307.47;5012265;28;20381;-96
2023/04/09 12:05:59;;;;;;;27.30;19.25;;;;;;;15.07;56.90;102299.03;4990800;28;20030;-96
2023/04/09 12:08:33;;;;;;;27.63;19.23;;;;;;;15.15;59.51;102298.38;5003088;28;20026;-96
2023/04/09 12:11:12;;;;;;;27.85;18.67;;;;;;;15.39;59.75;102304.28;5005642;28;20034;-96
2023/04/09 12:13:43;;;;;;;27.45;18.35;;;;;;;15.58;58.75;102304.78;4993485;28;20093;-96
2023/04/09 12:16:19;;;;;;;23.40;16.73;;;;;;;15.62;54.85;102296.16;4994480;28;20121;-96
2023/04/09 12:18:46;;;;;;;23.02;16.10;;;;;;;15.74;55.27;102291.22;5012618;28;20076;-96
2023/04/09 12:21:12;;;;;;;20.42;14.57;;;;;;;15.73;54.50;102284.19;4990426;28;20030;-96
2023/04/09 12:23:37;;;;;;;17.10;12.45;;;;;;;15.98;53.75;102287.44;4995242;28;20113;-96
2023/04/09 12:26:03;;;;;;;21.98;15.00;;;;;;;16.19;54.60;102287.06;4993428;28;20030;-96
2023/04/09 12:28:28;;;;;;;20.25;14.70;;;;;;;16.28;53.80;102289.00;5010279;28;20050;-96
2023/04/09 12:30:54;;;;;;;20.92;15.32;;;;;;;16.19;51.70;102281.78;4974658;28;20037;-96
2023/04/09 12:33:20;;;;;;;22.90;16.08;;;;;;;15.92;51.74;102290.81;4970764;28;20965;-96
2023/04/09 12:35:46;;;;;;;21.42;15.45;;;;;;;15.47;54.33;102281.75;4990538;28;20029;-96
2023/04/09 12:38:12;;;;;;;21.05;14.25;;;;;;;15.21;51.76;102275.81;4973082;28;20030;-96
2023/04/09 12:40:40;;;;;;;20.20;14.20;;;;;;;15.31;55.33;102282.19;4969582;28;20090;-96
2023/04/09 12:43:12;;;;;;;20.40;13.65;;;;;;;15.33;53.14;102284.88;4969256;28;20026;-96
2023/04/09 12:45:38;;;;;;;18.92;13.45;;;;;;;15.08;53.77;102277.19;4971549;28;20081;-96
2023/04/09 12:48:03;;;;;;;17.52;13.25;;;;;;;14.87;54.89;102289.69;4990100;28;20034;-96
2023/04/09 12:50:28;;;;;;;16.88;12.80;;;;;;;14.78;52.92;102280.72;4972173;28;20042;-96
2023/04/09 12:52:54;;;;;;;17.63;12.45;;;;;;;15.08;55.15;102273.69;4970851;28;20054;-96